Observation data for Knox City on 02/14/2020      Previous  Date  Next       Current Mesonet Observations  Soil Data  Daily Summary Page  Observations in Plain Language
KKN1 140600Z 06007KT M02/M06 A304 RMK A01 T10171055  RH  076%=      5-min Rain = 0
KKN1 140605Z 06006KT M02/M05 A304 RMK A01 T10181054  RH  077%=      5-min Rain = 0
KKN1 140610Z 06006KT M02/M05 A304 RMK A01 T10181054  RH  077%=      5-min Rain = 0
KKN1 140615Z 07006KT M02/M05 A304 RMK A01 T10191054  RH  078%=      5-min Rain = 0
KKN1 140620Z 06006KT M02/M06 A304 RMK A01 T10191055  RH  077%=      5-min Rain = 0
KKN1 140625Z 06005KT M02/M05 A304 RMK A01 T10201053  RH  078%=      5-min Rain = 0
KKN1 140630Z 06005KT M02/M05 A304 RMK A01 T10211053  RH  078%=      5-min Rain = 0
KKN1 140635Z 07005KT M02/M05 A304 RMK A01 T10211053  RH  078%=      5-min Rain = 0
KKN1 140640Z 06005KT M02/M05 A304 RMK A01 T10221052  RH  080%=      5-min Rain = 0
KKN1 140645Z 05005KT M02/M05 A304 RMK A01 T10221052  RH  080%=      5-min Rain = 0
KKN1 140650Z 05004KT M02/M05 A304 RMK A01 T10241051  RH  082%=      5-min Rain = 0
KKN1 140655Z 04004KT M02/M05 A304 RMK A01 T10241050  RH  083%=      5-min Rain = 0
KKN1 140700Z 04004KT M03/M05 A304 RMK A01 T10261048  RH  085%=      5-min Rain = 0
KKN1 140705Z 04003KT M03/M05 A3039 RMK A01 T10281047  RH  087%=      5-min Rain = 0
KKN1 140710Z 04004KT M03/M05 A3039 RMK A01 T10281048  RH  086%=      5-min Rain = 0
KKN1 140715Z 06003KT M03/M05 A3039 RMK A01 T10281047  RH  087%=      5-min Rain = 0
KKN1 140720Z 06003KT M03/M05 A3039 RMK A01 T10281048  RH  086%=      5-min Rain = 0
KKN1 140725Z 08002KT M03/M05 A3039 RMK A01 T10281050  RH  085%=      5-min Rain = 0
KKN1 140730Z 07002KT M03/M05 A3039 RMK A01 T10281050  RH  085%=      5-min Rain = 0
KKN1 140735Z 07003KT M03/M05 A3039 RMK A01 T10281050  RH  085%=      5-min Rain = 0
KKN1 140740Z 06003KT M03/M05 A304 RMK A01 T10281050  RH  085%=      5-min Rain = 0
KKN1 140745Z 06003KT M03/M05 A304 RMK A01 T10281051  RH  084%=      5-min Rain = 0
KKN1 140750Z 06003KT M03/M05 A304 RMK A01 T10291051  RH  085%=      5-min Rain = 0
KKN1 140755Z 06003KT M03/M05 A304 RMK A01 T10291052  RH  085%=      5-min Rain = 0
KKN1 140800Z 05003KT M03/M05 A304 RMK A01 T10301051  RH  086%=      5-min Rain = 0
KKN1 140805Z 04003KT M03/M05 A304 RMK A01 T10311051  RH  086%=      5-min Rain = 0
KKN1 140810Z 04004KT M03/M05 A3041 RMK A01 T10321051  RH  087%=      5-min Rain = 0
KKN1 140815Z 04003KT M03/M05 A3041 RMK A01 T10311051  RH  087%=      5-min Rain = 0
KKN1 140820Z 04002KT M03/M05 A3041 RMK A01 T10331051  RH  087%=      5-min Rain = 0
KKN1 140825Z 04003KT M03/M05 A3041 RMK A01 T10331050  RH  088%=      5-min Rain = 0
KKN1 140830Z 04003KT M03/M05 A3041 RMK A01 T10331050  RH  088%=      5-min Rain = 0
KKN1 140835Z 04003KT M03/M05 A3041 RMK A01 T10331052  RH  087%=      5-min Rain = 0
KKN1 140840Z 05003KT M03/M05 A3041 RMK A01 T10331052  RH  087%=      5-min Rain = 0
KKN1 140845Z 05004KT M03/M05 A3041 RMK A01 T10321051  RH  087%=      5-min Rain = 0
KKN1 140850Z 04004KT M03/M05 A304 RMK A01 T10321051  RH  087%=      5-min Rain = 0
KKN1 140855Z 02004KT M03/M05 A304 RMK A01 T10341052  RH  088%=      5-min Rain = 0
KKN1 140900Z 02004KT M04/M05 A304 RMK A01 T10361054  RH  088%=      5-min Rain = 0
KKN1 140905Z 02003KT M04/M06 A3041 RMK A01 T10361055  RH  087%=      5-min Rain = 0
KKN1 140910Z 02003KT M04/M06 A304 RMK A01 T10381056  RH  087%=      5-min Rain = 0
KKN1 140915Z 01003KT M04/M06 A304 RMK A01 T10401057  RH  088%=      5-min Rain = 0
KKN1 140920Z 02003KT M04/M06 A304 RMK A01 T10411058  RH  088%=      5-min Rain = 0
KKN1 140925Z 02004KT M04/M06 A304 RMK A01 T10401055  RH  089%=      5-min Rain = 0
KKN1 140930Z 01003KT M04/M06 A304 RMK A01 T10411057  RH  089%=      5-min Rain = 0
KKN1 140935Z 01003KT M04/M06 A304 RMK A01 T10441060  RH  089%=      5-min Rain = 0
KKN1 140940Z 01003KT M04/M06 A304 RMK A01 T10441059  RH  090%=      5-min Rain = 0
KKN1 140945Z 02004KT M04/M06 A3041 RMK A01 T10441058  RH  090%=      5-min Rain = 0
KKN1 140950Z 02004KT M04/M06 A3041 RMK A01 T10411056  RH  090%=      5-min Rain = 0
KKN1 140955Z 01004KT M04/M06 A3041 RMK A01 T10411056  RH  089%=      5-min Rain = 0
KKN1 141000Z 01003KT M04/M06 A3041 RMK A01 T10411057  RH  089%=      5-min Rain = 0
KKN1 141005Z 02004KT M04/M06 A304 RMK A01 T10421057  RH  089%=      5-min Rain = 0
KKN1 141010Z 02003KT M04/M06 A304 RMK A01 T10421056  RH  090%=      5-min Rain = 0
KKN1 141015Z 02003KT M04/M06 A3041 RMK A01 T10421057  RH  090%=      5-min Rain = 0
KKN1 141020Z 01002KT M04/M06 A3041 RMK A01 T10441059  RH  089%=      5-min Rain = 0
KKN1 141025Z 01003KT M05/M06 A3041 RMK A01 T10461061  RH  089%=      5-min Rain = 0
KKN1 141030Z 01002KT M05/M06 A3041 RMK A01 T10471062  RH  090%=      5-min Rain = 0
KKN1 141035Z 01003KT M05/M06 A3041 RMK A01 T10481062  RH  090%=      5-min Rain = 0
KKN1 141040Z 00003KT M05/M06 A3041 RMK A01 T10491063  RH  091%=      5-min Rain = 0
KKN1 141045Z 01003KT M05/M06 A3042 RMK A01 T10501063  RH  091%=      5-min Rain = 0
KKN1 141050Z 01002KT M05/M06 A3042 RMK A01 T10501063  RH  091%=      5-min Rain = 0
KKN1 141055Z 01003KT M05/M06 A3042 RMK A01 T10501063  RH  091%=      5-min Rain = 0
KKN1 141100Z 01003KT M05/M06 A3042 RMK A01 T10481061  RH  091%=      5-min Rain = 0
KKN1 141105Z 02003KT M05/M06 A3042 RMK A01 T10471060  RH  091%=      5-min Rain = 0
KKN1 141110Z 02003KT M05/M06 A3042 RMK A01 T10461059  RH  091%=      5-min Rain = 0
KKN1 141115Z 02003KT M05/M06 A3042 RMK A01 T10461059  RH  091%=      5-min Rain = 0
KKN1 141120Z 02004KT M05/M06 A3042 RMK A01 T10451059  RH  090%=      5-min Rain = 0
KKN1 141125Z 03004KT M05/M06 A3042 RMK A01 T10451060  RH  089%=      5-min Rain = 0
KKN1 141130Z 03005KT M05/M06 A3042 RMK A01 T10451063  RH  087%=      5-min Rain = 0
KKN1 141135Z 03005KT M05/M06 A3042 RMK A01 T10451063  RH  087%=      5-min Rain = 0
KKN1 141140Z 03005KT M05/M06 A3042 RMK A01 T10451064  RH  087%=      5-min Rain = 0
KKN1 141145Z 03005KT M05/M06 A3042 RMK A01 T10451063  RH  087%=      5-min Rain = 0
KKN1 141150Z 03005KT M05/M06 A3042 RMK A01 T10451063  RH  087%=      5-min Rain = 0
KKN1 141155Z 03005KT M05/M06 A3042 RMK A01 T10451063  RH  087%=      5-min Rain = 0
KKN1 141200Z 03005KT M04/M06 A3042 RMK A01 T10441062  RH  087%=      5-min Rain = 0
KKN1 141205Z 03004KT M05/M06 A3042 RMK A01 T10451062  RH  088%=      5-min Rain = 0
KKN1 141210Z 03004KT M05/M06 A3042 RMK A01 T10451062  RH  088%=      5-min Rain = 0
KKN1 141215Z 04003KT M04/M06 A3042 RMK A01 T10441061  RH  088%=      5-min Rain = 0
KKN1 141220Z 04004KT M04/M06 A3042 RMK A01 T10431061  RH  087%=      5-min Rain = 0
KKN1 141225Z 04005KT M04/M06 A3042 RMK A01 T10421062  RH  086%=      5-min Rain = 0
KKN1 141230Z 04005KT M04/M06 A3042 RMK A01 T10411062  RH  086%=      5-min Rain = 0
KKN1 141235Z 04005KT M04/M06 A3042 RMK A01 T10411062  RH  086%=      5-min Rain = 0
KKN1 141240Z 04005KT M04/M06 A3042 RMK A01 T10421061  RH  086%=      5-min Rain = 0
KKN1 141245Z 04005KT M04/M06 A3042 RMK A01 T10421062  RH  086%=      5-min Rain = 0
KKN1 141250Z 04004KT M04/M06 A3042 RMK A01 T10421061  RH  087%=      5-min Rain = 0
KKN1 141255Z 05005KT M04/M06 A3042 RMK A01 T10421060  RH  087%=      5-min Rain = 0
KKN1 141300Z 05005KT M04/M06 A3043 RMK A01 T10421061  RH  087%=      5-min Rain = 0
KKN1 141305Z 05005KT M04/M06 A3043 RMK A01 T10421061  RH  087%=      5-min Rain = 0
KKN1 141310Z 05004KT M04/M06 A3043 RMK A01 T10421061  RH  087%=      5-min Rain = 0
KKN1 141315Z 05004KT M04/M06 A3043 RMK A01 T10421060  RH  087%=      5-min Rain = 0
KKN1 141320Z 05004KT M04/M06 A3043 RMK A01 T10411060  RH  087%=      5-min Rain = 0
KKN1 141325Z 04004KT M04/M06 A3043 RMK A01 T10411060  RH  087%=      5-min Rain = 0
KKN1 141330Z 04004KT M04/M06 A3043 RMK A01 T10411060  RH  087%=      5-min Rain = 0
KKN1 141335Z 05004KT M04/M06 A3043 RMK A01 T10401059  RH  087%=      5-min Rain = 0
KKN1 141340Z 05004KT M04/M06 A3043 RMK A01 T10401059  RH  087%=      5-min Rain = 0
KKN1 141345Z 05004KT M04/M06 A3043 RMK A01 T10411059  RH  087%=      5-min Rain = 0
KKN1 141350Z 04005KT M04/M06 A3043 RMK A01 T10401060  RH  087%=      5-min Rain = 0
KKN1 141355Z 04004KT M04/M06 A3043 RMK A01 T10391058  RH  087%=      5-min Rain = 0
KKN1 141400Z 03003KT M04/M06 A3044 RMK A01 T10381057  RH  087%=      5-min Rain = 0
KKN1 141405Z 04004KT M04/M06 A3044 RMK A01 T10371056  RH  086%=      5-min Rain = 0
KKN1 141410Z 04004KT M04/M06 A3044 RMK A01 T10361057  RH  085%=      5-min Rain = 0
KKN1 141415Z 05004KT M03/M06 A3044 RMK A01 T10341057  RH  084%=      5-min Rain = 0
KKN1 141420Z 04005KT M03/M06 A3044 RMK A01 T10321057  RH  083%=      5-min Rain = 0
KKN1 141425Z 05004KT M03/M06 A3044 RMK A01 T10311056  RH  083%=      5-min Rain = 0
KKN1 141430Z 04004KT M03/M06 A3045 RMK A01 T10311057  RH  082%=      5-min Rain = 0
KKN1 141435Z 04005KT M03/M06 A3045 RMK A01 T10291057  RH  082%=      5-min Rain = 0
KKN1 141440Z 04005KT M03/M06 A3045 RMK A01 T10281055  RH  082%=      5-min Rain = 0
KKN1 141445Z 04005KT M03/M05 A3046 RMK A01 T10251052  RH  082%=      5-min Rain = 0
KKN1 141450Z 06005KT M02/M05 A3045 RMK A01 T10241052  RH  081%=      5-min Rain = 0
KKN1 141455Z 05005KT M02/M05 A3046 RMK A01 T10241053  RH  080%=      5-min Rain = 0
KKN1 141500Z 05005KT M02/M05 A3046 RMK A01 T10231052  RH  081%=      5-min Rain = 0
KKN1 141505Z 06005KT M02/M05 A3046 RMK A01 T10221052  RH  080%=      5-min Rain = 0
KKN1 141510Z 07006KT M02/M05 A3046 RMK A01 T10211051  RH  080%=      5-min Rain = 0
KKN1 141515Z 07006KT M02/M05 A3046 RMK A01 T10211051  RH  080%=      5-min Rain = 0
KKN1 141520Z 06006KT M02/M05 A3046 RMK A01 T10181048  RH  080%=      5-min Rain = 0
KKN1 141525Z 07005KT M01/M05 A3046 RMK A01 T10141045  RH  080%=      5-min Rain = 0
KKN1 141530Z 07005KT M01/M04 A3046 RMK A01 T10121044  RH  079%=      5-min Rain = 0
KKN1 141535Z 07005KT M01/M05 A3046 RMK A01 T10131048  RH  077%=      5-min Rain = 0
KKN1 141540Z 08005KT M01/M05 A3045 RMK A01 T10121047  RH  077%=      5-min Rain = 0
KKN1 141545Z 07005KT M01/M05 A3045 RMK A01 T10081047  RH  075%=      5-min Rain = 0
KKN1 141550Z 08004KT M01/M05 A3045 RMK A01 T10051047  RH  074%=      5-min Rain = 0
KKN1 141555Z 09005KT M00/M05 A3045 RMK A01 T10031051  RH  070%=      5-min Rain = 0
KKN1 141600Z 09004KT M00/M06 A3045 RMK A01 T10011055  RH  067%=      5-min Rain = 0
KKN1 141605Z 08006KT 00/M05 A3045 RMK A01 T00011051  RH  068%=      5-min Rain = 0
KKN1 141610Z 09005KT 00/M06 A3045 RMK A01 T00011055  RH  066%=      5-min Rain = 0
KKN1 141615Z 11005KT 00/M05 A3045 RMK A01 T00041053  RH  066%=      5-min Rain = 0
KKN1 141620Z 11005KT 01/M05 A3045 RMK A01 T00051053  RH  065%=      5-min Rain = 0
KKN1 141625Z 13006KT 01/M05 A3045 RMK A01 T00081050  RH  065%=      5-min Rain = 0
KKN1 141630Z 12005KT 01/M05 A3045 RMK A01 T00101049  RH  065%=      5-min Rain = 0
KKN1 141635Z 14005KT 01/M05 A3044 RMK A01 T00101049  RH  065%=      5-min Rain = 0
KKN1 141640Z 14005G10KT 01/M05 A3044 RMK A01 T00131047  RH  065%=      5-min Rain = 0
KKN1 141645Z 16006KT 01/M05 A3044 RMK A01 T00131047  RH  064%=      5-min Rain = 0
KKN1 141650Z 14007KT 01/M05 A3044 RMK A01 T00141045  RH  065%=      5-min Rain = 0
KKN1 141655Z 15006KT 01/M05 A3044 RMK A01 T00131046  RH  065%=      5-min Rain = 0
KKN1 141700Z 15004KT 01/M05 A3044 RMK A01 T00141046  RH  065%=      5-min Rain = 0
KKN1 141705Z 16006KT 02/M04 A3044 RMK A01 T00171042  RH  065%=      5-min Rain = 0
KKN1 141710Z 17006KT 02/M04 A3044 RMK A01 T00171042  RH  065%=      5-min Rain = 0
KKN1 141715Z 15006KT 02/M04 A3043 RMK A01 T00201037  RH  066%=      5-min Rain = 0
KKN1 141720Z 15006KT 02/M04 A3043 RMK A01 T00231035  RH  066%=      5-min Rain = 0
KKN1 141725Z 15008KT 02/M03 A3043 RMK A01 T00231034  RH  066%=      5-min Rain = 0
KKN1 141730Z 17006KT 02/M04 A3043 RMK A01 T00231035  RH  066%=      5-min Rain = 0
KKN1 141735Z 14008KT 03/M03 A3043 RMK A01 T00261029  RH  067%=      5-min Rain = 0
KKN1 141740Z 16008KT 03/M03 A3043 RMK A01 T00301029  RH  066%=      5-min Rain = 0
KKN1 141745Z 15007KT 03/M03 A3042 RMK A01 T00291028  RH  066%=      5-min Rain = 0
KKN1 141750Z 15006KT 03/M03 A3042 RMK A01 T00291029  RH  066%=      5-min Rain = 0
KKN1 141755Z 15007G14KT 03/M03 A3042 RMK A01 T00301029  RH  066%=      5-min Rain = 0
KKN1 141800Z 16007KT 03/M03 A3041 RMK A01 T00331028  RH  065%=      5-min Rain = 0
KKN1 141805Z 16007KT 03/M03 A3041 RMK A01 T00331029  RH  064%=      5-min Rain = 0
KKN1 141810Z 15008KT 04/M02 A3041 RMK A01 T00361023  RH  066%=      5-min Rain = 0
KKN1 141815Z 13006G11KT 04/M02 A304 RMK A01 T00391023  RH  065%=      5-min Rain = 0
KKN1 141820Z 14008KT 04/M02 A304 RMK A01 T00401019  RH  066%=      5-min Rain = 0
KKN1 141825Z 13005KT 04/M02 A3039 RMK A01 T00391023  RH  064%=      5-min Rain = 0
KKN1 141830Z 13005KT 04/M02 A3039 RMK A01 T00401021  RH  065%=      5-min Rain = 0
KKN1 141835Z 15007KT 04/M02 A3039 RMK A01 T00441020  RH  064%=      5-min Rain = 0
KKN1 141840Z 13007KT 04/M02 A3038 RMK A01 T00411022  RH  064%=      5-min Rain = 0
KKN1 141845Z 15008KT 04/M02 A3038 RMK A01 T00441019  RH  064%=      5-min Rain = 0
KKN1 141850Z 16007KT 05/M02 A3037 RMK A01 T00451019  RH  064%=      5-min Rain = 0
KKN1 141855Z 15008KT 05/M02 A3037 RMK A01 T00461018  RH  064%=      5-min Rain = 0
KKN1 141900Z 15006G11KT 05/M01 A3036 RMK A01 T00491013  RH  064%=      5-min Rain = 0
KKN1 141905Z 15007KT 05/M02 A3036 RMK A01 T00481017  RH  063%=      5-min Rain = 0
KKN1 141910Z 14008KT 05/M02 A3036 RMK A01 T00501016  RH  063%=      5-min Rain = 0
KKN1 141915Z 15009KT 05/M02 A3035 RMK A01 T00491016  RH  063%=      5-min Rain = 0
KKN1 141920Z 18005KT 05/M02 A3035 RMK A01 T00501017  RH  062%=      5-min Rain = 0
KKN1 141925Z 16007KT 06/M01 A3035 RMK A01 T00561012  RH  062%=      5-min Rain = 0
KKN1 141930Z 15007KT 06/M01 A3035 RMK A01 T00571011  RH  062%=      5-min Rain = 0
KKN1 141935Z 16009G15KT 06/M01 A3034 RMK A01 T00581011  RH  062%=      5-min Rain = 0
KKN1 141940Z 14009KT 06/M01 A3034 RMK A01 T00561013  RH  062%=      5-min Rain = 0
KKN1 141945Z 15007KT 06/M01 A3034 RMK A01 T00551013  RH  062%=      5-min Rain = 0
KKN1 141950Z 16006G12KT 06/M01 A3033 RMK A01 T00621007  RH  062%=      5-min Rain = 0
KKN1 141955Z 14009KT 06/M01 A3033 RMK A01 T00621009  RH  061%=      5-min Rain = 0
KKN1 142000Z 16009KT 06/M01 A3032 RMK A01 T00611011  RH  061%=      5-min Rain = 0
KKN1 142005Z 16009KT 06/M01 A3032 RMK A01 T00631010  RH  060%=      5-min Rain = 0
KKN1 142010Z 15009KT 07/M01 A3031 RMK A01 T00661008  RH  060%=      5-min Rain = 0
KKN1 142015Z 15010KT 07/M01 A3031 RMK A01 T00671006  RH  060%=      5-min Rain = 0
KKN1 142020Z 18005KT 07/M01 A3031 RMK A01 T00711008  RH  058%=      5-min Rain = 0
KKN1 142025Z 19008KT 07/M01 A3031 RMK A01 T00711008  RH  058%=      5-min Rain = 0
KKN1 142030Z 18007KT 07/M01 A3031 RMK A01 T00731009  RH  057%=      5-min Rain = 0
KKN1 142035Z 16008KT 07/M01 A303 RMK A01 T00741006  RH  058%=      5-min Rain = 0
KKN1 142040Z 18007KT 07/M01 A303 RMK A01 T00731007  RH  057%=      5-min Rain = 0
KKN1 142045Z 17007KT 08/M00 A303 RMK A01 T00761004  RH  057%=      5-min Rain = 0
KKN1 142050Z 17007KT 08/M00 A3029 RMK A01 T00771003  RH  058%=      5-min Rain = 0
KKN1 142055Z 15011KT 08/00 A3029 RMK A01 T00800001  RH  058%=      5-min Rain = 0
KKN1 142100Z 15009G15KT 08/M00 A3029 RMK A01 T00801001  RH  057%=      5-min Rain = 0
KKN1 142105Z 17005KT 08/M00 A3029 RMK A01 T00791003  RH  057%=      5-min Rain = 0
KKN1 142110Z 15008KT 09/00 A3029 RMK A01 T00850004  RH  057%=      5-min Rain = 0
KKN1 142115Z 17005KT 09/00 A3028 RMK A01 T00850003  RH  057%=      5-min Rain = 0
KKN1 142120Z 19007KT 09/00 A3028 RMK A01 T00880003  RH  056%=      5-min Rain = 0
KKN1 142125Z 21006KT 09/00 A3027 RMK A01 T00880001  RH  055%=      5-min Rain = 0
KKN1 142130Z 17006G11KT 09/01 A3027 RMK A01 T00920009  RH  057%=      5-min Rain = 0
KKN1 142135Z 17008G13KT 10/01 A3027 RMK A01 T00960009  RH  055%=      5-min Rain = 0
KKN1 142140Z 19008KT 10/01 A3026 RMK A01 T00950006  RH  054%=      5-min Rain = 0
KKN1 142145Z 18009G16KT 10/01 A3026 RMK A01 T00980008  RH  054%=      5-min Rain = 0
KKN1 142150Z 19012KT 10/01 A3026 RMK A01 T00980009  RH  055%=      5-min Rain = 0
KKN1 142155Z 19010KT 10/01 A3026 RMK A01 T00990011  RH  055%=      5-min Rain = 0
KKN1 142200Z 17009KT 10/01 A3025 RMK A01 T01010010  RH  054%=      5-min Rain = 0
KKN1 142205Z 18009KT 10/01 A3025 RMK A01 T01020011  RH  054%=      5-min Rain = 0
KKN1 142210Z 19010KT 10/01 A3025 RMK A01 T01030012  RH  054%=      5-min Rain = 0
KKN1 142215Z 19010KT 10/01 A3025 RMK A01 T01030011  RH  053%=      5-min Rain = 0
KKN1 142220Z 20008KT 10/01 A3025 RMK A01 T01020007  RH  053%=      5-min Rain = 0
KKN1 142225Z 18008KT 11/01 A3025 RMK A01 T01060014  RH  054%=      5-min Rain = 0
KKN1 142230Z 18008KT 11/01 A3024 RMK A01 T01060013  RH  053%=      5-min Rain = 0
KKN1 142235Z 18007KT 11/02 A3024 RMK A01 T01080015  RH  053%=      5-min Rain = 0
KKN1 142240Z 18009KT 11/01 A3024 RMK A01 T01100013  RH  052%=      5-min Rain = 0
KKN1 142245Z 18011G16KT 11/01 A3023 RMK A01 T01110013  RH  052%=      5-min Rain = 0
KKN1 142250Z 17009KT 11/01 A3023 RMK A01 T01100010  RH  051%=      5-min Rain = 0
KKN1 142255Z 17009KT 11/01 A3023 RMK A01 T01110013  RH  052%=      5-min Rain = 0
KKN1 142300Z 18010KT 11/01 A3023 RMK A01 T01110008  RH  050%=      5-min Rain = 0
KKN1 142305Z 18008KT 11/01 A3023 RMK A01 T01110011  RH  051%=      5-min Rain = 0
KKN1 142310Z 16009KT 11/01 A3022 RMK A01 T01110011  RH  051%=      5-min Rain = 0
KKN1 142315Z 17008KT 11/02 A3022 RMK A01 T01120018  RH  053%=      5-min Rain = 0
KKN1 142320Z 19008KT 11/01 A3022 RMK A01 T01120013  RH  051%=      5-min Rain = 0
KKN1 142325Z 19008KT 11/01 A3022 RMK A01 T01120014  RH  052%=      5-min Rain = 0
KKN1 142330Z 17008KT 11/01 A3022 RMK A01 T01120014  RH  052%=      5-min Rain = 0
KKN1 142335Z 17008KT 11/01 A3022 RMK A01 T01120013  RH  051%=      5-min Rain = 0
KKN1 142340Z 17008KT 11/02 A3022 RMK A01 T01110015  RH  052%=      5-min Rain = 0
KKN1 142345Z 17008KT 11/02 A3022 RMK A01 T01100017  RH  053%=      5-min Rain = 0
KKN1 142350Z 17010KT 11/01 A3021 RMK A01 T01100014  RH  052%=      5-min Rain = 0
KKN1 142355Z 17010KT 11/01 A3021 RMK A01 T01090011  RH  052%=      5-min Rain = 0
KKN1 150000Z 17008KT 11/01 A3022 RMK A01 T01060013  RH  053%=      5-min Rain = 0
KKN1 150005Z 16008KT 10/02 A3022 RMK A01 T01010016  RH  056%=      5-min Rain = 0
KKN1 150010Z 16007KT 10/02 A3022 RMK A01 T00970016  RH  058%=      5-min Rain = 0
KKN1 150015Z 16008KT 09/02 A3021 RMK A01 T00930016  RH  059%=      5-min Rain = 0
KKN1 150020Z 16008KT 09/02 A3021 RMK A01 T00900017  RH  061%=      5-min Rain = 0
KKN1 150025Z 16008KT 09/02 A3021 RMK A01 T00870017  RH  063%=      5-min Rain = 0
KKN1 150030Z 16008KT 08/02 A3021 RMK A01 T00830018  RH  064%=      5-min Rain = 0
KKN1 150035Z 16008KT 08/02 A3021 RMK A01 T00820018  RH  065%=      5-min Rain = 0
KKN1 150040Z 16008KT 08/02 A3021 RMK A01 T00810018  RH  066%=      5-min Rain = 0
KKN1 150045Z 16008KT 08/02 A3021 RMK A01 T00790019  RH  067%=      5-min Rain = 0
KKN1 150050Z 16008KT 08/02 A302 RMK A01 T00780020  RH  068%=      5-min Rain = 0
KKN1 150055Z 16008KT 08/02 A302 RMK A01 T00760021  RH  069%=      5-min Rain = 0
KKN1 150100Z 16008KT 08/02 A302 RMK A01 T00750021  RH  070%=      5-min Rain = 0
KKN1 150105Z 16008KT 08/02 A302 RMK A01 T00750021  RH  070%=      5-min Rain = 0
KKN1 150110Z 16008KT 07/02 A302 RMK A01 T00740022  RH  070%=      5-min Rain = 0
KKN1 150115Z 16008KT 07/02 A302 RMK A01 T00720022  RH  072%=      5-min Rain = 0
KKN1 150120Z 16008KT 07/02 A302 RMK A01 T00700022  RH  073%=      5-min Rain = 0
KKN1 150125Z 16007KT 07/02 A3021 RMK A01 T00680022  RH  074%=      5-min Rain = 0
KKN1 150130Z 16008KT 07/02 A3021 RMK A01 T00670023  RH  075%=      5-min Rain = 0
KKN1 150135Z 17008KT 07/02 A3021 RMK A01 T00670023  RH  075%=      5-min Rain = 0
KKN1 150140Z 17007KT 07/02 A3021 RMK A01 T00660023  RH  075%=      5-min Rain = 0
KKN1 150145Z 17007KT 06/02 A3021 RMK A01 T00630023  RH  077%=      5-min Rain = 0
KKN1 150150Z 17007KT 06/02 A3021 RMK A01 T00610023  RH  078%=      5-min Rain = 0
KKN1 150155Z 17007KT 06/02 A3021 RMK A01 T00590023  RH  079%=      5-min Rain = 0
KKN1 150200Z 16008KT 06/02 A3021 RMK A01 T00570023  RH  080%=      5-min Rain = 0
KKN1 150205Z 16007KT 06/02 A3021 RMK A01 T00560023  RH  081%=      5-min Rain = 0
KKN1 150210Z 17007KT 06/02 A3021 RMK A01 T00560023  RH  081%=      5-min Rain = 0
KKN1 150215Z 17008KT 06/02 A3021 RMK A01 T00560022  RH  080%=      5-min Rain = 0
KKN1 150220Z 17008KT 06/02 A3021 RMK A01 T00570022  RH  080%=      5-min Rain = 0
KKN1 150225Z 17008KT 06/02 A3021 RMK A01 T00580022  RH  079%=      5-min Rain = 0
KKN1 150230Z 17009KT 06/02 A3021 RMK A01 T00600022  RH  078%=      5-min Rain = 0
KKN1 150235Z 16009KT 06/02 A302 RMK A01 T00610022  RH  077%=      5-min Rain = 0
KKN1 150240Z 16008KT 06/02 A302 RMK A01 T00630021  RH  076%=      5-min Rain = 0
KKN1 150245Z 16008KT 06/02 A3021 RMK A01 T00640020  RH  075%=      5-min Rain = 0
KKN1 150250Z 16007KT 06/02 A3021 RMK A01 T00620020  RH  076%=      5-min Rain = 0
KKN1 150255Z 16007KT 06/02 A3021 RMK A01 T00570019  RH  077%=      5-min Rain = 0
KKN1 150300Z 15008KT 06/02 A3021 RMK A01 T00550018  RH  079%=      5-min Rain = 0
KKN1 150305Z 15008KT 05/02 A3021 RMK A01 T00500021  RH  083%=      5-min Rain = 0
KKN1 150310Z 15007KT 05/02 A3021 RMK A01 T00500021  RH  083%=      5-min Rain = 0
KKN1 150315Z 16006KT 05/02 A302 RMK A01 T00480020  RH  083%=      5-min Rain = 0
KKN1 150320Z 16006KT 05/02 A302 RMK A01 T00470019  RH  083%=      5-min Rain = 0
KKN1 150325Z 16006KT 05/02 A302 RMK A01 T00470018  RH  083%=      5-min Rain = 0
KKN1 150330Z 15007KT 05/02 A302 RMK A01 T00470018  RH  083%=      5-min Rain = 0
KKN1 150335Z 15008KT 05/02 A3019 RMK A01 T00480019  RH  083%=      5-min Rain = 0
KKN1 150340Z 15008KT 05/02 A3019 RMK A01 T00490020  RH  083%=      5-min Rain = 0
KKN1 150345Z 16009KT 05/02 A3019 RMK A01 T00510020  RH  081%=      5-min Rain = 0
KKN1 150350Z 16009KT 05/02 A3019 RMK A01 T00510018  RH  080%=      5-min Rain = 0
KKN1 150355Z 16010KT 05/02 A3019 RMK A01 T00520016  RH  079%=      5-min Rain = 0
KKN1 150400Z 16011KT 05/02 A3019 RMK A01 T00540015  RH  077%=      5-min Rain = 0
KKN1 150405Z 16010KT 05/01 A3019 RMK A01 T00530014  RH  077%=      5-min Rain = 0
KKN1 150410Z 16010KT 05/01 A3019 RMK A01 T00520013  RH  077%=      5-min Rain = 0
KKN1 150415Z 16009KT 05/01 A3019 RMK A01 T00510012  RH  077%=      5-min Rain = 0
KKN1 150420Z 17010KT 05/01 A3019 RMK A01 T00500012  RH  078%=      5-min Rain = 0
KKN1 150425Z 17010KT 05/01 A3019 RMK A01 T00470012  RH  079%=      5-min Rain = 0
KKN1 150430Z 17009KT 05/01 A3019 RMK A01 T00460011  RH  079%=      5-min Rain = 0
KKN1 150435Z 17009KT 04/01 A3019 RMK A01 T00430011  RH  081%=      5-min Rain = 0
KKN1 150440Z 18009KT 04/01 A3019 RMK A01 T00400011  RH  083%=      5-min Rain = 0
KKN1 150445Z 18009KT 04/01 A3019 RMK A01 T00390011  RH  083%=      5-min Rain = 0
KKN1 150450Z 18010KT 04/01 A3019 RMK A01 T00420012  RH  082%=      5-min Rain = 0
KKN1 150455Z 18010KT 04/01 A3019 RMK A01 T00420012  RH  082%=      5-min Rain = 0
KKN1 150500Z 18010KT 04/01 A3019 RMK A01 T00410012  RH  082%=      5-min Rain = 0
KKN1 150505Z 18010KT 04/01 A3018 RMK A01 T00400012  RH  083%=      5-min Rain = 0
KKN1 150510Z 18010KT 04/01 A3018 RMK A01 T00390012  RH  084%=      5-min Rain = 0
KKN1 150515Z 18010KT 04/01 A3018 RMK A01 T00370011  RH  085%=      5-min Rain = 0
KKN1 150520Z 18010KT 04/01 A3018 RMK A01 T00360012  RH  085%=      5-min Rain = 0
KKN1 150525Z 18009KT 04/01 A3018 RMK A01 T00360012  RH  085%=      5-min Rain = 0
KKN1 150530Z 18009KT 04/01 A3018 RMK A01 T00360013  RH  086%=      5-min Rain = 0
KKN1 150535Z 18009KT 04/01 A3018 RMK A01 T00380014  RH  086%=      5-min Rain = 0
KKN1 150540Z 18009KT 04/02 A3017 RMK A01 T00380015  RH  086%=      5-min Rain = 0
KKN1 150545Z 18010KT 04/02 A3017 RMK A01 T00420016  RH  084%=      5-min Rain = 0
KKN1 150550Z 18011KT 05/02 A3017 RMK A01 T00450016  RH  083%=      5-min Rain = 0
KKN1 150555Z 18011KT 05/02 A3017 RMK A01 T00480017  RH  081%=      5-min Rain = 0

Page generated in 0.0294 seconds.